sensor_id;sensor_type;location;lat;lon;timestamp;P1;durP1;ratioP1;P2;durP2;ratioP2
22644;SDS011;11489;50.834;6.752;2024-01-10T00:02:05;39.40;;;13.90;;
22644;SDS011;11489;50.834;6.752;2024-01-10T00:04:31;28.40;;;12.80;;
22644;SDS011;11489;50.834;6.752;2024-01-10T00:06:56;33.97;;;14.00;;
22644;SDS011;11489;50.834;6.752;2024-01-10T00:09:22;32.80;;;12.97;;
22644;SDS011;11489;50.834;6.752;2024-01-10T00:11:48;32.13;;;13.63;;
22644;SDS011;11489;50.834;6.752;2024-01-10T00:14:13;33.37;;;14.43;;
22644;SDS011;11489;50.834;6.752;2024-01-10T00:16:39;29.80;;;13.50;;
22644;SDS011;11489;50.834;6.752;2024-01-10T00:19:05;30.80;;;12.97;;
22644;SDS011;11489;50.834;6.752;2024-01-10T00:21:30;37.03;;;13.77;;
22644;SDS011;11489;50.834;6.752;2024-01-10T00:23:56;33.87;;;13.70;;
22644;SDS011;11489;50.834;6.752;2024-01-10T00:26:22;30.00;;;13.07;;
22644;SDS011;11489;50.834;6.752;2024-01-10T00:28:48;35.60;;;13.57;;
22644;SDS011;11489;50.834;6.752;2024-01-10T00:31:14;34.60;;;13.87;;
22644;SDS011;11489;50.834;6.752;2024-01-10T00:33:39;33.93;;;14.13;;
22644;SDS011;11489;50.834;6.752;2024-01-10T00:36:05;31.07;;;13.73;;
22644;SDS011;11489;50.834;6.752;2024-01-10T00:38:31;31.73;;;13.33;;
22644;SDS011;11489;50.834;6.752;2024-01-10T00:40:57;31.73;;;13.60;;
22644;SDS011;11489;50.834;6.752;2024-01-10T00:43:23;32.93;;;12.60;;
22644;SDS011;11489;50.834;6.752;2024-01-10T00:45:49;40.90;;;14.10;;
22644;SDS011;11489;50.834;6.752;2024-01-10T00:48:15;29.67;;;13.07;;
22644;SDS011;11489;50.834;6.752;2024-01-10T00:50:42;36.73;;;14.40;;
22644;SDS011;11489;50.834;6.752;2024-01-10T00:53:09;32.63;;;13.20;;
22644;SDS011;11489;50.834;6.752;2024-01-10T00:55:35;30.03;;;13.87;;
22644;SDS011;11489;50.834;6.752;2024-01-10T00:58:00;33.00;;;12.90;;
22644;SDS011;11489;50.834;6.752;2024-01-10T01:00:26;34.63;;;13.33;;
22644;SDS011;11489;50.834;6.752;2024-01-10T01:02:52;29.87;;;12.93;;
22644;SDS011;11489;50.834;6.752;2024-01-10T01:05:18;34.13;;;14.47;;
22644;SDS011;11489;50.834;6.752;2024-01-10T01:07:43;33.47;;;13.37;;
22644;SDS011;11489;50.834;6.752;2024-01-10T01:10:09;35.93;;;12.60;;
22644;SDS011;11489;50.834;6.752;2024-01-10T01:12:35;30.13;;;12.83;;
22644;SDS011;11489;50.834;6.752;2024-01-10T01:15:00;30.33;;;12.63;;
22644;SDS011;11489;50.834;6.752;2024-01-10T01:17:26;26.87;;;12.50;;
22644;SDS011;11489;50.834;6.752;2024-01-10T01:19:51;32.50;;;13.30;;
22644;SDS011;11489;50.834;6.752;2024-01-10T01:22:17;30.37;;;13.33;;
22644;SDS011;11489;50.834;6.752;2024-01-10T01:24:43;31.27;;;14.07;;
22644;SDS011;11489;50.834;6.752;2024-01-10T01:27:09;29.87;;;12.73;;
22644;SDS011;11489;50.834;6.752;2024-01-10T01:29:34;31.07;;;13.10;;
22644;SDS011;11489;50.834;6.752;2024-01-10T01:32:00;28.27;;;12.33;;
22644;SDS011;11489;50.834;6.752;2024-01-10T01:34:26;30.87;;;12.43;;
22644;SDS011;11489;50.834;6.752;2024-01-10T01:36:51;32.93;;;13.83;;
22644;SDS011;11489;50.834;6.752;2024-01-10T01:39:20;34.53;;;13.00;;
22644;SDS011;11489;50.834;6.752;2024-01-10T01:41:45;26.43;;;12.80;;
22644;SDS011;11489;50.834;6.752;2024-01-10T01:44:11;29.27;;;12.40;;
22644;SDS011;11489;50.834;6.752;2024-01-10T01:46:37;36.63;;;14.33;;
22644;SDS011;11489;50.834;6.752;2024-01-10T01:49:05;30.30;;;12.67;;
22644;SDS011;11489;50.834;6.752;2024-01-10T01:51:32;32.83;;;13.80;;
22644;SDS011;11489;50.834;6.752;2024-01-10T01:54:02;30.33;;;12.63;;
22644;SDS011;11489;50.834;6.752;2024-01-10T01:56:34;33.80;;;12.63;;
22644;SDS011;11489;50.834;6.752;2024-01-10T01:59:01;31.27;;;13.20;;
22644;SDS011;11489;50.834;6.752;2024-01-10T02:01:28;28.47;;;11.90;;
22644;SDS011;11489;50.834;6.752;2024-01-10T02:03:53;30.20;;;12.63;;
22644;SDS011;11489;50.834;6.752;2024-01-10T02:06:20;28.57;;;12.07;;
22644;SDS011;11489;50.834;6.752;2024-01-10T02:08:46;34.43;;;12.60;;
22644;SDS011;11489;50.834;6.752;2024-01-10T02:11:11;27.10;;;11.03;;
22644;SDS011;11489;50.834;6.752;2024-01-10T02:13:37;27.00;;;11.23;;
22644;SDS011;11489;50.834;6.752;2024-01-10T02:16:03;30.13;;;11.97;;
22644;SDS011;11489;50.834;6.752;2024-01-10T02:18:30;28.17;;;11.97;;
22644;SDS011;11489;50.834;6.752;2024-01-10T02:20:56;33.37;;;12.47;;
22644;SDS011;11489;50.834;6.752;2024-01-10T02:23:23;32.90;;;13.37;;
22644;SDS011;11489;50.834;6.752;2024-01-10T02:25:51;28.17;;;11.87;;
22644;SDS011;11489;50.834;6.752;2024-01-10T02:28:16;24.63;;;10.87;;
22644;SDS011;11489;50.834;6.752;2024-01-10T02:30:42;29.53;;;11.37;;
22644;SDS011;11489;50.834;6.752;2024-01-10T02:33:08;27.53;;;11.90;;
22644;SDS011;11489;50.834;6.752;2024-01-10T02:35:33;28.33;;;12.17;;
22644;SDS011;11489;50.834;6.752;2024-01-10T02:37:59;25.10;;;11.43;;
22644;SDS011;11489;50.834;6.752;2024-01-10T02:40:25;29.90;;;11.57;;
22644;SDS011;11489;50.834;6.752;2024-01-10T02:42:51;26.63;;;11.63;;
22644;SDS011;11489;50.834;6.752;2024-01-10T02:45:17;28.33;;;11.23;;
22644;SDS011;11489;50.834;6.752;2024-01-10T02:47:43;33.40;;;12.50;;
22644;SDS011;11489;50.834;6.752;2024-01-10T02:50:09;27.73;;;11.40;;
22644;SDS011;11489;50.834;6.752;2024-01-10T02:52:35;24.17;;;10.73;;
22644;SDS011;11489;50.834;6.752;2024-01-10T02:55:01;28.60;;;12.47;;
22644;SDS011;11489;50.834;6.752;2024-01-10T02:57:26;26.10;;;11.20;;
22644;SDS011;11489;50.834;6.752;2024-01-10T02:59:52;31.23;;;12.97;;
22644;SDS011;11489;50.834;6.752;2024-01-10T03:02:18;29.83;;;11.93;;
22644;SDS011;11489;50.834;6.752;2024-01-10T03:04:43;31.27;;;11.83;;
22644;SDS011;11489;50.834;6.752;2024-01-10T03:07:11;30.53;;;12.40;;
22644;SDS011;11489;50.834;6.752;2024-01-10T03:09:37;27.53;;;12.10;;
22644;SDS011;11489;50.834;6.752;2024-01-10T03:12:03;33.70;;;11.70;;
22644;SDS011;11489;50.834;6.752;2024-01-10T03:14:29;27.60;;;11.60;;
22644;SDS011;11489;50.834;6.752;2024-01-10T03:16:55;30.10;;;12.37;;
22644;SDS011;11489;50.834;6.752;2024-01-10T03:19:21;27.07;;;11.90;;
22644;SDS011;11489;50.834;6.752;2024-01-10T03:21:46;25.07;;;11.00;;
22644;SDS011;11489;50.834;6.752;2024-01-10T03:24:12;26.07;;;12.13;;
22644;SDS011;11489;50.834;6.752;2024-01-10T03:26:38;25.97;;;11.80;;
22644;SDS011;11489;50.834;6.752;2024-01-10T03:29:04;29.13;;;12.47;;
22644;SDS011;11489;50.834;6.752;2024-01-10T03:31:30;29.27;;;11.87;;
22644;SDS011;11489;50.834;6.752;2024-01-10T03:33:59;26.97;;;11.57;;
22644;SDS011;11489;50.834;6.752;2024-01-10T03:36:24;27.80;;;11.80;;
22644;SDS011;11489;50.834;6.752;2024-01-10T03:38:50;30.70;;;12.43;;
22644;SDS011;11489;50.834;6.752;2024-01-10T03:41:17;34.53;;;14.03;;
22644;SDS011;11489;50.834;6.752;2024-01-10T03:43:43;34.30;;;13.67;;
22644;SDS011;11489;50.834;6.752;2024-01-10T03:46:09;36.17;;;13.47;;
22644;SDS011;11489;50.834;6.752;2024-01-10T03:48:36;30.43;;;13.03;;
22644;SDS011;11489;50.834;6.752;2024-01-10T03:51:02;30.07;;;12.77;;
22644;SDS011;11489;50.834;6.752;2024-01-10T03:53:28;36.00;;;13.37;;
22644;SDS011;11489;50.834;6.752;2024-01-10T03:55:53;29.10;;;12.67;;
22644;SDS011;11489;50.834;6.752;2024-01-10T03:58:19;28.47;;;11.87;;
22644;SDS011;11489;50.834;6.752;2024-01-10T04:00:45;24.17;;;10.60;;
22644;SDS011;11489;50.834;6.752;2024-01-10T04:03:11;25.50;;;11.77;;
22644;SDS011;11489;50.834;6.752;2024-01-10T04:05:36;27.00;;;11.37;;
22644;SDS011;11489;50.834;6.752;2024-01-10T04:08:02;27.90;;;12.83;;
22644;SDS011;11489;50.834;6.752;2024-01-10T04:10:29;28.37;;;11.30;;
22644;SDS011;11489;50.834;6.752;2024-01-10T04:12:54;28.23;;;11.73;;
22644;SDS011;11489;50.834;6.752;2024-01-10T04:15:20;28.27;;;11.07;;
22644;SDS011;11489;50.834;6.752;2024-01-10T04:17:45;25.80;;;11.50;;
22644;SDS011;11489;50.834;6.752;2024-01-10T04:20:11;26.00;;;11.60;;
22644;SDS011;11489;50.834;6.752;2024-01-10T04:22:37;27.67;;;12.30;;
22644;SDS011;11489;50.834;6.752;2024-01-10T04:25:05;25.97;;;11.13;;
22644;SDS011;11489;50.834;6.752;2024-01-10T04:27:32;26.00;;;10.97;;
22644;SDS011;11489;50.834;6.752;2024-01-10T04:29:58;28.47;;;11.57;;
22644;SDS011;11489;50.834;6.752;2024-01-10T04:32:24;30.97;;;11.90;;
22644;SDS011;11489;50.834;6.752;2024-01-10T04:34:49;26.60;;;11.87;;
22644;SDS011;11489;50.834;6.752;2024-01-10T04:37:15;27.83;;;11.00;;
22644;SDS011;11489;50.834;6.752;2024-01-10T04:39:42;30.30;;;11.10;;
22644;SDS011;11489;50.834;6.752;2024-01-10T04:42:08;28.37;;;11.30;;
22644;SDS011;11489;50.834;6.752;2024-01-10T04:44:35;28.00;;;11.43;;
22644;SDS011;11489;50.834;6.752;2024-01-10T04:47:01;29.40;;;12.00;;
22644;SDS011;11489;50.834;6.752;2024-01-10T04:49:27;28.67;;;11.37;;
22644;SDS011;11489;50.834;6.752;2024-01-10T04:51:53;29.17;;;11.97;;
22644;SDS011;11489;50.834;6.752;2024-01-10T04:54:19;26.13;;;10.73;;
22644;SDS011;11489;50.834;6.752;2024-01-10T04:56:45;28.90;;;12.27;;
22644;SDS011;11489;50.834;6.752;2024-01-10T04:59:11;22.33;;;11.07;;
22644;SDS011;11489;50.834;6.752;2024-01-10T05:01:37;27.50;;;11.17;;
22644;SDS011;11489;50.834;6.752;2024-01-10T05:04:03;25.40;;;10.30;;
22644;SDS011;11489;50.834;6.752;2024-01-10T05:06:29;24.07;;;10.50;;
22644;SDS011;11489;50.834;6.752;2024-01-10T05:08:54;23.93;;;10.70;;
22644;SDS011;11489;50.834;6.752;2024-01-10T05:11:23;23.50;;;11.40;;
22644;SDS011;11489;50.834;6.752;2024-01-10T05:13:51;24.10;;;10.50;;
22644;SDS011;11489;50.834;6.752;2024-01-10T05:16:17;26.40;;;11.77;;
22644;SDS011;11489;50.834;6.752;2024-01-10T05:18:42;20.50;;;9.93;;
22644;SDS011;11489;50.834;6.752;2024-01-10T05:21:08;27.97;;;11.30;;
22644;SDS011;11489;50.834;6.752;2024-01-10T05:23:34;24.90;;;10.67;;
22644;SDS011;11489;50.834;6.752;2024-01-10T05:26:00;24.30;;;10.70;;
22644;SDS011;11489;50.834;6.752;2024-01-10T05:28:26;24.63;;;10.10;;
22644;SDS011;11489;50.834;6.752;2024-01-10T05:30:52;23.77;;;9.87;;
22644;SDS011;11489;50.834;6.752;2024-01-10T05:33:19;29.10;;;10.97;;
22644;SDS011;11489;50.834;6.752;2024-01-10T05:35:45;22.53;;;10.20;;
22644;SDS011;11489;50.834;6.752;2024-01-10T05:38:11;25.17;;;10.80;;
22644;SDS011;11489;50.834;6.752;2024-01-10T05:40:36;24.27;;;10.60;;
22644;SDS011;11489;50.834;6.752;2024-01-10T05:43:02;23.57;;;10.57;;
22644;SDS011;11489;50.834;6.752;2024-01-10T05:45:28;25.33;;;10.70;;
22644;SDS011;11489;50.834;6.752;2024-01-10T05:47:54;20.63;;;9.50;;
22644;SDS011;11489;50.834;6.752;2024-01-10T05:50:20;26.40;;;10.67;;
22644;SDS011;11489;50.834;6.752;2024-01-10T05:52:46;21.73;;;9.53;;
22644;SDS011;11489;50.834;6.752;2024-01-10T05:55:12;27.83;;;10.30;;
22644;SDS011;11489;50.834;6.752;2024-01-10T05:57:37;21.83;;;9.83;;
22644;SDS011;11489;50.834;6.752;2024-01-10T06:00:04;29.07;;;10.97;;
22644;SDS011;11489;50.834;6.752;2024-01-10T06:02:35;24.83;;;10.10;;
22644;SDS011;11489;50.834;6.752;2024-01-10T06:05:10;26.77;;;11.27;;
22644;SDS011;11489;50.834;6.752;2024-01-10T06:07:36;25.37;;;10.77;;
22644;SDS011;11489;50.834;6.752;2024-01-10T06:10:02;26.53;;;10.47;;
22644;SDS011;11489;50.834;6.752;2024-01-10T06:12:29;21.17;;;9.23;;
22644;SDS011;11489;50.834;6.752;2024-01-10T06:14:54;24.10;;;10.13;;
22644;SDS011;11489;50.834;6.752;2024-01-10T06:17:20;21.90;;;9.90;;
22644;SDS011;11489;50.834;6.752;2024-01-10T06:19:46;26.13;;;11.10;;
22644;SDS011;11489;50.834;6.752;2024-01-10T06:22:12;29.77;;;12.30;;
22644;SDS011;11489;50.834;6.752;2024-01-10T06:24:38;30.00;;;11.93;;
22644;SDS011;11489;50.834;6.752;2024-01-10T06:27:04;29.10;;;10.83;;
22644;SDS011;11489;50.834;6.752;2024-01-10T06:29:31;24.23;;;10.67;;
22644;SDS011;11489;50.834;6.752;2024-01-10T06:31:56;29.03;;;12.73;;
22644;SDS011;11489;50.834;6.752;2024-01-10T06:34:23;27.23;;;11.73;;
22644;SDS011;11489;50.834;6.752;2024-01-10T06:36:49;27.93;;;11.97;;
22644;SDS011;11489;50.834;6.752;2024-01-10T06:39:15;28.97;;;12.13;;
22644;SDS011;11489;50.834;6.752;2024-01-10T06:41:42;25.20;;;10.80;;
22644;SDS011;11489;50.834;6.752;2024-01-10T06:44:07;25.67;;;11.20;;
22644;SDS011;11489;50.834;6.752;2024-01-10T06:46:33;27.70;;;11.33;;
22644;SDS011;11489;50.834;6.752;2024-01-10T06:48:59;26.20;;;11.40;;
22644;SDS011;11489;50.834;6.752;2024-01-10T06:51:25;27.40;;;11.07;;
22644;SDS011;11489;50.834;6.752;2024-01-10T06:53:54;24.33;;;11.50;;
22644;SDS011;11489;50.834;6.752;2024-01-10T06:56:25;26.47;;;11.33;;
22644;SDS011;11489;50.834;6.752;2024-01-10T06:58:51;24.47;;;11.00;;
22644;SDS011;11489;50.834;6.752;2024-01-10T07:01:16;29.73;;;10.70;;
22644;SDS011;11489;50.834;6.752;2024-01-10T07:03:42;26.10;;;10.87;;
22644;SDS011;11489;50.834;6.752;2024-01-10T07:06:09;25.93;;;10.87;;
22644;SDS011;11489;50.834;6.752;2024-01-10T07:08:40;26.57;;;10.47;;
22644;SDS011;11489;50.834;6.752;2024-01-10T07:11:07;25.93;;;11.33;;
22644;SDS011;11489;50.834;6.752;2024-01-10T07:13:33;30.33;;;11.77;;
22644;SDS011;11489;50.834;6.752;2024-01-10T07:15:59;23.43;;;9.87;;
22644;SDS011;11489;50.834;6.752;2024-01-10T07:18:28;25.03;;;10.90;;
22644;SDS011;11489;50.834;6.752;2024-01-10T07:20:54;30.17;;;11.57;;
22644;SDS011;11489;50.834;6.752;2024-01-10T07:23:19;29.23;;;11.67;;
22644;SDS011;11489;50.834;6.752;2024-01-10T07:25:45;28.83;;;11.70;;
22644;SDS011;11489;50.834;6.752;2024-01-10T07:28:11;28.87;;;12.07;;
22644;SDS011;11489;50.834;6.752;2024-01-10T07:30:36;33.70;;;13.03;;
22644;SDS011;11489;50.834;6.752;2024-01-10T07:33:02;26.27;;;11.27;;
22644;SDS011;11489;50.834;6.752;2024-01-10T07:35:28;27.83;;;11.80;;
22644;SDS011;11489;50.834;6.752;2024-01-10T07:37:54;29.57;;;11.57;;
22644;SDS011;11489;50.834;6.752;2024-01-10T07:40:20;27.30;;;12.03;;
22644;SDS011;11489;50.834;6.752;2024-01-10T07:42:45;29.27;;;12.77;;
22644;SDS011;11489;50.834;6.752;2024-01-10T07:45:11;26.47;;;11.10;;
22644;SDS011;11489;50.834;6.752;2024-01-10T07:47:37;24.40;;;10.70;;
22644;SDS011;11489;50.834;6.752;2024-01-10T07:50:06;25.87;;;11.10;;
22644;SDS011;11489;50.834;6.752;2024-01-10T07:52:33;25.53;;;11.30;;
22644;SDS011;11489;50.834;6.752;2024-01-10T07:54:59;25.43;;;11.03;;
22644;SDS011;11489;50.834;6.752;2024-01-10T07:57:25;25.30;;;11.07;;
22644;SDS011;11489;50.834;6.752;2024-01-10T07:59:52;30.40;;;13.40;;
22644;SDS011;11489;50.834;6.752;2024-01-10T08:02:18;29.63;;;12.93;;
22644;SDS011;11489;50.834;6.752;2024-01-10T08:04:44;27.57;;;11.60;;
22644;SDS011;11489;50.834;6.752;2024-01-10T08:07:09;27.10;;;11.93;;
22644;SDS011;11489;50.834;6.752;2024-01-10T08:09:35;24.40;;;10.73;;
22644;SDS011;11489;50.834;6.752;2024-01-10T08:12:02;29.33;;;11.53;;
22644;SDS011;11489;50.834;6.752;2024-01-10T08:14:28;24.83;;;10.60;;
22644;SDS011;11489;50.834;6.752;2024-01-10T08:16:54;24.17;;;10.97;;
22644;SDS011;11489;50.834;6.752;2024-01-10T08:19:23;26.20;;;10.67;;
22644;SDS011;11489;50.834;6.752;2024-01-10T08:21:51;30.53;;;11.57;;
22644;SDS011;11489;50.834;6.752;2024-01-10T08:24:20;27.97;;;11.53;;
22644;SDS011;11489;50.834;6.752;2024-01-10T08:26:46;35.53;;;15.10;;
22644;SDS011;11489;50.834;6.752;2024-01-10T08:29:17;34.20;;;14.90;;
22644;SDS011;11489;50.834;6.752;2024-01-10T08:31:44;27.77;;;13.43;;
22644;SDS011;11489;50.834;6.752;2024-01-10T08:34:10;32.73;;;13.63;;
22644;SDS011;11489;50.834;6.752;2024-01-10T08:36:36;30.97;;;13.73;;
22644;SDS011;11489;50.834;6.752;2024-01-10T08:39:02;26.50;;;11.97;;
22644;SDS011;11489;50.834;6.752;2024-01-10T08:41:29;30.27;;;12.70;;
22644;SDS011;11489;50.834;6.752;2024-01-10T08:43:55;31.17;;;12.70;;
22644;SDS011;11489;50.834;6.752;2024-01-10T08:46:21;25.80;;;12.13;;
22644;SDS011;11489;50.834;6.752;2024-01-10T08:48:46;26.80;;;11.53;;
22644;SDS011;11489;50.834;6.752;2024-01-10T08:51:13;29.37;;;11.77;;
22644;SDS011;11489;50.834;6.752;2024-01-10T08:53:42;28.53;;;12.83;;
22644;SDS011;11489;50.834;6.752;2024-01-10T08:56:08;30.27;;;12.40;;
22644;SDS011;11489;50.834;6.752;2024-01-10T08:58:33;27.00;;;12.27;;
22644;SDS011;11489;50.834;6.752;2024-01-10T09:00:59;26.83;;;11.60;;
22644;SDS011;11489;50.834;6.752;2024-01-10T09:03:25;33.23;;;12.37;;
22644;SDS011;11489;50.834;6.752;2024-01-10T09:05:50;25.23;;;11.43;;
22644;SDS011;11489;50.834;6.752;2024-01-10T09:08:16;25.57;;;11.83;;
22644;SDS011;11489;50.834;6.752;2024-01-10T09:10:42;26.93;;;12.00;;
22644;SDS011;11489;50.834;6.752;2024-01-10T09:13:07;26.00;;;11.70;;
22644;SDS011;11489;50.834;6.752;2024-01-10T09:15:34;26.23;;;11.93;;
22644;SDS011;11489;50.834;6.752;2024-01-10T09:17:59;29.87;;;11.50;;
22644;SDS011;11489;50.834;6.752;2024-01-10T09:20:25;32.93;;;12.57;;
22644;SDS011;11489;50.834;6.752;2024-01-10T09:22:51;25.23;;;11.40;;
22644;SDS011;11489;50.834;6.752;2024-01-10T09:25:16;29.37;;;12.23;;
22644;SDS011;11489;50.834;6.752;2024-01-10T09:27:42;27.07;;;12.10;;
22644;SDS011;11489;50.834;6.752;2024-01-10T09:30:09;35.00;;;12.53;;
22644;SDS011;11489;50.834;6.752;2024-01-10T09:32:35;24.57;;;10.73;;
22644;SDS011;11489;50.834;6.752;2024-01-10T09:35:01;27.50;;;11.93;;
22644;SDS011;11489;50.834;6.752;2024-01-10T09:37:27;25.70;;;11.43;;
22644;SDS011;11489;50.834;6.752;2024-01-10T09:39:53;25.63;;;11.60;;
22644;SDS011;11489;50.834;6.752;2024-01-10T09:42:19;26.07;;;11.13;;
22644;SDS011;11489;50.834;6.752;2024-01-10T09:44:53;25.07;;;10.87;;
22644;SDS011;11489;50.834;6.752;2024-01-10T09:47:19;26.93;;;11.30;;
22644;SDS011;11489;50.834;6.752;2024-01-10T09:49:46;28.43;;;12.20;;
22644;SDS011;11489;50.834;6.752;2024-01-10T09:52:34;21.90;;;11.13;;
22644;SDS011;11489;50.834;6.752;2024-01-10T09:55:02;33.60;;;12.43;;
22644;SDS011;11489;50.834;6.752;2024-01-10T09:57:28;26.63;;;11.23;;
22644;SDS011;11489;50.834;6.752;2024-01-10T09:59:56;29.77;;;11.67;;
22644;SDS011;11489;50.834;6.752;2024-01-10T10:02:21;28.53;;;12.37;;
22644;SDS011;11489;50.834;6.752;2024-01-10T10:04:57;27.27;;;11.97;;
22644;SDS011;11489;50.834;6.752;2024-01-10T10:07:48;24.87;;;11.83;;
22644;SDS011;11489;50.834;6.752;2024-01-10T10:10:15;30.27;;;12.00;;
22644;SDS011;11489;50.834;6.752;2024-01-10T10:12:51;29.27;;;12.20;;
22644;SDS011;11489;50.834;6.752;2024-01-10T10:15:18;26.50;;;11.40;;
22644;SDS011;11489;50.834;6.752;2024-01-10T10:17:51;28.37;;;11.63;;
22644;SDS011;11489;50.834;6.752;2024-01-10T10:20:31;26.83;;;12.03;;
22644;SDS011;11489;50.834;6.752;2024-01-10T10:23:03;29.83;;;11.77;;
22644;SDS011;11489;50.834;6.752;2024-01-10T10:25:37;33.30;;;12.23;;
22644;SDS011;11489;50.834;6.752;2024-01-10T10:28:08;35.97;;;12.13;;
22644;SDS011;11489;50.834;6.752;2024-01-10T10:30:34;32.57;;;11.87;;
22644;SDS011;11489;50.834;6.752;2024-01-10T10:33:00;28.80;;;12.23;;
22644;SDS011;11489;50.834;6.752;2024-01-10T10:35:26;30.67;;;11.87;;
22644;SDS011;11489;50.834;6.752;2024-01-10T10:37:52;26.50;;;11.43;;
22644;SDS011;11489;50.834;6.752;2024-01-10T10:40:19;31.20;;;12.70;;
22644;SDS011;11489;50.834;6.752;2024-01-10T10:42:46;29.83;;;11.00;;
22644;SDS011;11489;50.834;6.752;2024-01-10T10:45:15;28.97;;;12.00;;
22644;SDS011;11489;50.834;6.752;2024-01-10T10:47:42;28.90;;;11.70;;
22644;SDS011;11489;50.834;6.752;2024-01-10T10:50:15;29.07;;;12.17;;
22644;SDS011;11489;50.834;6.752;2024-01-10T10:52:46;29.90;;;12.00;;
22644;SDS011;11489;50.834;6.752;2024-01-10T10:55:16;29.47;;;12.00;;
22644;SDS011;11489;50.834;6.752;2024-01-10T10:57:46;27.63;;;11.53;;
22644;SDS011;11489;50.834;6.752;2024-01-10T11:00:14;27.43;;;11.37;;
22644;SDS011;11489;50.834;6.752;2024-01-10T11:02:41;27.13;;;11.07;;
22644;SDS011;11489;50.834;6.752;2024-01-10T11:05:09;22.60;;;10.70;;
22644;SDS011;11489;50.834;6.752;2024-01-10T11:07:36;28.43;;;11.93;;
22644;SDS011;11489;50.834;6.752;2024-01-10T11:10:10;27.83;;;12.47;;
22644;SDS011;11489;50.834;6.752;2024-01-10T11:12:56;24.83;;;11.50;;
22644;SDS011;11489;50.834;6.752;2024-01-10T11:18:40;28.37;;;12.17;;
22644;SDS011;11489;50.834;6.752;2024-01-10T11:24:20;30.73;;;12.50;;
22644;SDS011;11489;50.834;6.752;2024-01-10T11:26:47;28.90;;;12.33;;
22644;SDS011;11489;50.834;6.752;2024-01-10T11:29:14;25.60;;;11.87;;
22644;SDS011;11489;50.834;6.752;2024-01-10T11:31:40;31.67;;;12.70;;
22644;SDS011;11489;50.834;6.752;2024-01-10T11:34:06;31.13;;;12.37;;
22644;SDS011;11489;50.834;6.752;2024-01-10T11:36:33;28.50;;;12.43;;
22644;SDS011;11489;50.834;6.752;2024-01-10T11:39:00;28.53;;;12.13;;
22644;SDS011;11489;50.834;6.752;2024-01-10T11:41:30;30.73;;;12.30;;
22644;SDS011;11489;50.834;6.752;2024-01-10T11:46:38;28.70;;;12.00;;
22644;SDS011;11489;50.834;6.752;2024-01-10T11:49:11;28.03;;;12.33;;
22644;SDS011;11489;50.834;6.752;2024-01-10T11:51:41;27.13;;;12.07;;
22644;SDS011;11489;50.834;6.752;2024-01-10T11:54:08;27.37;;;12.57;;
22644;SDS011;11489;50.834;6.752;2024-01-10T11:56:40;29.57;;;13.00;;
22644;SDS011;11489;50.834;6.752;2024-01-10T11:59:08;32.40;;;13.37;;
22644;SDS011;11489;50.834;6.752;2024-01-10T12:01:40;32.80;;;14.30;;
22644;SDS011;11489;50.834;6.752;2024-01-10T12:04:06;31.20;;;13.67;;
22644;SDS011;11489;50.834;6.752;2024-01-10T12:06:34;32.23;;;13.30;;
22644;SDS011;11489;50.834;6.752;2024-01-10T12:09:01;32.60;;;12.67;;
22644;SDS011;11489;50.834;6.752;2024-01-10T12:11:30;29.47;;;13.27;;
22644;SDS011;11489;50.834;6.752;2024-01-10T12:13:55;27.60;;;13.07;;
22644;SDS011;11489;50.834;6.752;2024-01-10T12:16:23;28.63;;;13.03;;
22644;SDS011;11489;50.834;6.752;2024-01-10T12:18:48;32.43;;;14.93;;
22644;SDS011;11489;50.834;6.752;2024-01-10T12:21:14;29.57;;;14.70;;
22644;SDS011;11489;50.834;6.752;2024-01-10T12:23:40;29.20;;;13.53;;
22644;SDS011;11489;50.834;6.752;2024-01-10T12:26:08;28.70;;;12.50;;
22644;SDS011;11489;50.834;6.752;2024-01-10T12:28:39;26.83;;;13.13;;
22644;SDS011;11489;50.834;6.752;2024-01-10T12:31:05;28.33;;;12.77;;
22644;SDS011;11489;50.834;6.752;2024-01-10T12:33:37;28.57;;;13.00;;
22644;SDS011;11489;50.834;6.752;2024-01-10T12:36:06;29.47;;;12.80;;
22644;SDS011;11489;50.834;6.752;2024-01-10T12:38:36;30.63;;;13.73;;
22644;SDS011;11489;50.834;6.752;2024-01-10T12:41:03;32.13;;;13.67;;
22644;SDS011;11489;50.834;6.752;2024-01-10T12:43:33;29.40;;;12.90;;
22644;SDS011;11489;50.834;6.752;2024-01-10T12:46:17;28.17;;;13.37;;
22644;SDS011;11489;50.834;6.752;2024-01-10T12:48:43;27.50;;;13.03;;
22644;SDS011;11489;50.834;6.752;2024-01-10T12:51:09;33.50;;;13.90;;
22644;SDS011;11489;50.834;6.752;2024-01-10T12:53:37;28.70;;;13.27;;
22644;SDS011;11489;50.834;6.752;2024-01-10T12:56:07;30.17;;;13.57;;
22644;SDS011;11489;50.834;6.752;2024-01-10T12:58:35;26.13;;;12.40;;
22644;SDS011;11489;50.834;6.752;2024-01-10T13:01:02;33.20;;;13.60;;
22644;SDS011;11489;50.834;6.752;2024-01-10T13:03:29;26.87;;;12.77;;
22644;SDS011;11489;50.834;6.752;2024-01-10T13:05:55;29.30;;;13.57;;
22644;SDS011;11489;50.834;6.752;2024-01-10T13:08:20;27.90;;;13.30;;
22644;SDS011;11489;50.834;6.752;2024-01-10T13:10:46;26.27;;;13.03;;
22644;SDS011;11489;50.834;6.752;2024-01-10T13:13:13;31.63;;;13.77;;
22644;SDS011;11489;50.834;6.752;2024-01-10T13:15:40;27.70;;;13.33;;
22644;SDS011;11489;50.834;6.752;2024-01-10T13:18:07;32.50;;;14.23;;
22644;SDS011;11489;50.834;6.752;2024-01-10T13:20:35;28.10;;;12.97;;
22644;SDS011;11489;50.834;6.752;2024-01-10T13:23:01;25.70;;;13.70;;
22644;SDS011;11489;50.834;6.752;2024-01-10T13:25:26;31.00;;;14.70;;
22644;SDS011;11489;50.834;6.752;2024-01-10T13:27:53;30.57;;;14.00;;
22644;SDS011;11489;50.834;6.752;2024-01-10T13:30:18;31.60;;;13.73;;
22644;SDS011;11489;50.834;6.752;2024-01-10T13:32:45;30.33;;;14.00;;
22644;SDS011;11489;50.834;6.752;2024-01-10T13:35:15;30.13;;;14.60;;
22644;SDS011;11489;50.834;6.752;2024-01-10T13:37:46;28.13;;;13.63;;
22644;SDS011;11489;50.834;6.752;2024-01-10T13:40:12;31.10;;;14.57;;
22644;SDS011;11489;50.834;6.752;2024-01-10T13:42:38;35.30;;;15.07;;
22644;SDS011;11489;50.834;6.752;2024-01-10T13:45:07;35.83;;;15.40;;
22644;SDS011;11489;50.834;6.752;2024-01-10T13:47:36;38.47;;;15.07;;
22644;SDS011;11489;50.834;6.752;2024-01-10T13:50:03;31.17;;;14.27;;
22644;SDS011;11489;50.834;6.752;2024-01-10T13:52:31;28.93;;;14.77;;
22644;SDS011;11489;50.834;6.752;2024-01-10T13:54:57;32.53;;;14.10;;
22644;SDS011;11489;50.834;6.752;2024-01-10T13:57:23;33.80;;;14.33;;
22644;SDS011;11489;50.834;6.752;2024-01-10T13:59:49;29.90;;;13.80;;
22644;SDS011;11489;50.834;6.752;2024-01-10T14:02:14;29.43;;;13.43;;
22644;SDS011;11489;50.834;6.752;2024-01-10T14:04:41;29.57;;;13.70;;
22644;SDS011;11489;50.834;6.752;2024-01-10T14:07:07;32.50;;;14.43;;
22644;SDS011;11489;50.834;6.752;2024-01-10T14:09:32;36.90;;;15.23;;
22644;SDS011;11489;50.834;6.752;2024-01-10T14:12:00;29.87;;;12.73;;
22644;SDS011;11489;50.834;6.752;2024-01-10T14:14:25;27.53;;;13.20;;
22644;SDS011;11489;50.834;6.752;2024-01-10T14:16:51;30.43;;;13.67;;
22644;SDS011;11489;50.834;6.752;2024-01-10T14:19:16;29.43;;;13.67;;
22644;SDS011;11489;50.834;6.752;2024-01-10T14:21:42;26.67;;;13.27;;
22644;SDS011;11489;50.834;6.752;2024-01-10T14:24:08;31.00;;;13.23;;
22644;SDS011;11489;50.834;6.752;2024-01-10T14:26:34;30.63;;;14.50;;
22644;SDS011;11489;50.834;6.752;2024-01-10T14:29:00;32.37;;;14.07;;